Time;durP1;ratioP1;P1;durP2;ratioP2;P2;SDS_P1;SDS_P2;PMS_P1;PMS_P2;Temp;Humidity;BMP_temperature;BMP_pressure;BME280_temperature;BME280_humidity;BME280_pressure;Samples;Min_cycle;Max_cycle;Signal;HPM_P1;HPM_P2
2022/01/14 00:01:44;;;;;;;67.50;38.70;;;;;;;0.51;83.87;102501.50;4951217;28;20916;-78
2022/01/14 00:04:09;;;;;;;64.95;38.20;;;;;;;0.51;84.18;102501.50;4946731;28;20425;-78
2022/01/14 00:06:34;;;;;;;62.05;37.42;;;;;;;0.49;84.46;102495.44;4969185;28;20522;-78
2022/01/14 00:09:07;;;;;;;64.67;37.70;;;;;;;0.49;84.62;102497.28;4969313;28;20412;-78
2022/01/14 00:11:39;;;;;;;66.43;37.20;;;;;;;0.44;84.33;102497.66;4955515;29;20393;-78
2022/01/14 00:16:30;;;;;;;62.75;36.67;;;;;;;0.38;85.17;102500.84;4955262;29;20410;-78
2022/01/14 00:18:57;;;;;;;64.00;38.35;;;;;;;0.39;85.01;102497.22;4937877;29;20457;-78
2022/01/14 00:21:23;;;;;;;63.33;37.08;;;;;;;0.38;84.48;102503.50;4963982;28;20404;-78
2022/01/14 00:23:51;;;;;;;66.28;39.17;;;;;;;0.38;84.66;102503.50;4973677;28;20404;-79
2022/01/14 00:31:51;;;;;;;65.53;40.17;;;;;;;0.38;84.63;102506.16;4971009;28;20423;-78
2022/01/14 00:34:17;;;;;;;65.00;39.35;;;;;;;0.39;84.67;102502.53;4973603;28;20405;-78
2022/01/14 00:36:43;;;;;;;67.95;40.08;;;;;;;0.39;85.14;102507.03;4974024;28;20396;-78
2022/01/14 00:39:11;;;;;;;69.60;40.42;;;;;;;0.39;84.58;102507.88;4973668;28;20404;-78
2022/01/14 00:41:37;;;;;;;70.37;41.20;;;;;;;0.37;85.32;102499.13;4972154;28;20420;-78
2022/01/14 00:44:07;;;;;;;67.85;40.45;;;;;;;0.41;85.06;102505.06;4973755;28;20491;-79
2022/01/14 00:46:33;;;;;;;68.85;39.92;;;;;;;0.43;85.34;102503.94;4971623;28;20397;-78
2022/01/14 00:48:58;;;;;;;69.68;41.45;;;;;;;0.48;85.44;102499.09;4973597;28;20800;-78
2022/01/14 00:51:23;;;;;;;68.53;41.37;;;;;;;0.52;85.58;102499.69;4970636;28;20506;-78
2022/01/14 00:53:49;;;;;;;76.23;43.67;;;;;;;0.58;85.72;102496.47;4956203;28;20745;-78
2022/01/14 00:56:30;;;;;;;74.27;42.10;;;;;;;0.61;85.78;102496.22;4972354;28;20424;-78
2022/01/14 00:59:14;;;;;;;73.60;42.93;;;;;;;0.58;85.77;102501.81;4955979;28;20453;-77
2022/01/14 01:01:43;;;;;;;74.00;41.90;;;;;;;0.63;85.56;102510.25;4970661;28;20419;-78
2022/01/14 01:04:11;;;;;;;74.00;42.10;;;;;;;0.68;85.33;102501.88;4973720;28;20780;-79
2022/01/14 01:06:36;;;;;;;73.95;41.22;;;;;;;0.61;85.61;102498.03;4973434;28;20422;-78
2022/01/14 01:09:06;;;;;;;77.38;43.45;;;;;;;0.55;85.20;102499.41;4973222;28;20510;-78
2022/01/14 01:11:35;;;;;;;76.13;43.13;;;;;;;0.55;85.78;102509.25;4969984;28;20410;-78
2022/01/14 01:14:07;;;;;;;75.43;43.27;;;;;;;0.52;85.58;102508.53;4973622;28;20430;-78
2022/01/14 01:16:32;;;;;;;80.05;42.80;;;;;;;0.47;85.82;102504.53;4973571;28;20407;-78
2022/01/14 01:18:58;;;;;;;80.03;44.43;;;;;;;0.42;86.23;102504.09;4973418;28;20432;-78
2022/01/14 01:21:23;;;;;;;78.72;42.97;;;;;;;0.48;86.31;102503.56;4972427;28;20759;-78
2022/01/14 01:23:49;;;;;;;81.80;44.42;;;;;;;0.32;86.17;102508.50;4973455;28;20397;-78
2022/01/14 01:26:22;;;;;;;80.73;43.30;;;;;;;0.24;86.98;102509.13;4972836;28;20435;-78
2022/01/14 01:29:00;;;;;;;85.65;43.40;;;;;;;0.18;86.97;102512.31;4973773;28;20401;-78
2022/01/14 01:31:37;;;;;;;87.95;45.40;;;;;;;0.16;87.04;102508.94;4971356;28;20830;-78
2022/01/14 01:34:04;;;;;;;81.40;43.78;;;;;;;0.20;87.06;102506.88;4973329;28;20451;-78
2022/01/14 01:36:29;;;;;;;81.03;43.10;;;;;;;0.24;86.94;102506.47;4972821;28;20404;-78
2022/01/14 01:38:54;;;;;;;80.73;43.50;;;;;;;0.18;86.60;102508.81;4973037;28;21048;-78
2022/01/14 01:41:20;;;;;;;76.50;42.67;;;;;;;0.04;87.07;102514.44;4966075;28;20479;-78
2022/01/14 01:43:51;;;;;;;93.28;44.95;;;;;;;0.04;87.63;102512.63;4972425;28;20891;-78
2022/01/14 01:46:17;;;;;;;88.10;44.40;;;;;;;0.03;87.55;102508.28;4973154;28;20495;-79
2022/01/14 01:48:43;;;;;;;76.35;41.80;;;;;;;0.05;87.35;102508.97;4973064;28;20388;-78
2022/01/14 01:51:08;;;;;;;87.13;43.20;;;;;;;0.05;87.07;102502.81;4971828;28;20416;-78
2022/01/14 01:53:33;;;;;;;79.60;42.83;;;;;;;-0.02;87.11;102499.78;4972218;28;20444;-78
2022/01/14 01:56:00;;;;;;;74.40;40.90;;;;;;;-0.12;87.96;102509.53;4955282;28;20432;-77
2022/01/14 01:58:25;;;;;;;83.78;42.58;;;;;;;-0.01;88.42;102498.84;4972740;28;20899;-77
2022/01/14 02:00:50;;;;;;;83.97;41.80;;;;;;;0.09;88.26;102494.44;4972129;28;20427;-78
2022/01/14 02:03:16;;;;;;;76.13;41.47;;;;;;;0.15;87.82;102496.59;4955251;28;20519;-77
2022/01/14 02:05:44;;;;;;;72.05;41.95;;;;;;;0.21;87.06;102489.88;4971741;28;20424;-78
2022/01/14 02:08:10;;;;;;;77.53;39.47;;;;;;;0.17;87.18;102494.63;4972589;28;20407;-78
2022/01/14 02:10:37;;;;;;;84.73;42.03;;;;;;;0.21;87.37;102497.88;4971634;28;20467;-77
2022/01/14 02:13:02;;;;;;;79.78;42.28;;;;;;;0.30;86.97;102492.63;4972684;28;20420;-78
2022/01/14 02:23:53;;;;;;;82.43;40.58;;;;;;;0.39;86.12;102501.69;4972579;28;20482;-78
2022/01/14 02:26:20;;;;;;;82.53;42.40;;;;;;;0.38;86.25;102497.31;4965827;28;20403;-78
2022/01/14 02:28:47;;;;;;;102.75;41.17;;;;;;;0.29;85.71;102492.78;4971839;28;20415;-78
2022/01/14 02:31:12;;;;;;;102.35;40.67;;;;;;;0.00;86.97;102508.53;4972487;28;20744;-78
2022/01/14 02:33:38;;;;;;;71.83;40.03;;;;;;;-0.08;87.84;102503.81;4972025;28;20404;-78
2022/01/14 02:36:05;;;;;;;139.53;41.70;;;;;;;-0.16;88.32;102498.25;4972630;28;20396;-78
2022/01/14 02:38:31;;;;;;;121.47;40.60;;;;;;;-0.37;89.36;102508.03;4969653;28;20485;-78
2022/01/14 02:40:57;;;;;;;112.43;39.20;;;;;;;-0.32;89.33;102505.81;4969782;28;20495;-78
2022/01/14 02:43:25;;;;;;;81.30;37.10;;;;;;;-0.41;89.82;102508.38;4972087;28;20424;-78
2022/01/14 02:45:52;;;;;;;134.10;41.97;;;;;;;-0.38;89.96;102493.00;4972229;28;20408;-78
2022/01/14 02:48:29;;;;;;;114.68;38.50;;;;;;;-0.35;89.73;102489.22;4971672;28;20400;-78
2022/01/14 02:51:00;;;;;;;176.00;42.08;;;;;;;-0.35;89.41;102489.22;4972259;28;20388;-78
2022/01/14 02:53:41;;;;;;;155.18;40.08;;;;;;;-0.50;90.12;102477.16;4972325;28;20388;-78
2022/01/14 02:56:09;;;;;;;128.95;41.10;;;;;;;-0.41;90.13;102479.09;4971900;28;20428;-78
2022/01/14 02:58:37;;;;;;;128.35;41.40;;;;;;;-0.36;89.70;102469.72;4971376;28;20427;-78
2022/01/14 03:01:08;;;;;;;90.43;38.93;;;;;;;-0.35;90.27;102458.13;4972029;28;20393;-78
2022/01/14 03:03:34;;;;;;;110.03;37.80;;;;;;;-0.55;89.91;102456.22;4972318;28;20799;-78
2022/01/14 03:06:02;;;;;;;133.43;39.83;;;;;;;-0.57;90.42;102452.84;4972369;28;20433;-78
2022/01/14 03:08:28;;;;;;;146.23;40.33;;;;;;;-0.36;90.94;102448.41;4971570;28;20403;-78
2022/01/14 03:10:59;;;;;;;90.25;40.05;;;;;;;-0.05;89.60;102447.59;4971614;28;20412;-78
2022/01/14 03:13:24;;;;;;;98.65;40.25;;;;;;;0.11;88.31;102435.63;4972268;28;20404;-79
2022/01/14 03:15:49;;;;;;;105.77;40.80;;;;;;;0.18;87.73;102440.34;4971834;28;20392;-78
2022/01/14 03:18:23;;;;;;;211.43;46.30;;;;;;;0.18;87.83;102437.66;4971383;28;20432;-78
2022/01/14 03:20:50;;;;;;;151.75;41.05;;;;;;;0.20;87.20;102437.56;4954032;28;20471;-78
2022/01/14 03:23:17;;;;;;;105.63;41.80;;;;;;;0.15;86.58;102432.59;4959898;28;20431;-79
2022/01/14 03:25:49;;;;;;;132.27;41.33;;;;;;;-0.13;87.53;102422.53;4978878;28;20398;-78
2022/01/14 03:28:18;;;;;;;116.13;40.17;;;;;;;-0.24;88.03;102436.78;4964124;28;20491;-78
2022/01/14 03:30:43;;;;;;;165.50;42.80;;;;;;;-0.08;89.32;102431.00;4973565;28;20475;-78
2022/01/14 03:33:09;;;;;;;155.45;42.72;;;;;;;0.02;87.13;102434.59;4967064;28;20396;-79
2022/01/14 03:35:35;;;;;;;159.15;44.25;;;;;;;0.08;86.73;102426.09;4985737;28;20407;-78
2022/01/14 03:38:00;;;;;;;105.70;41.65;;;;;;;0.05;86.60;102430.81;4974755;28;20923;-78
2022/01/14 03:40:26;;;;;;;96.30;40.73;;;;;;;-0.26;88.21;102421.88;4972092;28;20416;-78
2022/01/14 03:42:51;;;;;;;158.43;41.45;;;;;;;-0.37;89.03;102424.59;4983088;28;20883;-78
2022/01/14 03:45:17;;;;;;;126.88;41.45;;;;;;;-0.17;89.72;102427.31;4985740;28;20400;-78
2022/01/14 03:47:42;;;;;;;94.93;38.22;;;;;;;0.00;88.34;102416.06;4975403;28;20404;-78
2022/01/14 03:50:08;;;;;;;77.73;38.10;;;;;;;0.07;87.62;102411.06;4973796;28;20416;-78
2022/01/14 03:52:33;;;;;;;83.97;37.50;;;;;;;0.13;87.76;102417.72;4974941;28;20875;-78
2022/01/14 03:54:58;;;;;;;81.67;37.97;;;;;;;0.14;87.34;102414.06;4974963;28;20467;-78
2022/01/14 03:57:24;;;;;;;93.30;38.47;;;;;;;0.04;87.12;102413.13;4974878;28;20436;-78
2022/01/14 03:59:49;;;;;;;81.72;38.55;;;;;;;-0.04;87.88;102414.66;4973876;28;20499;-78
2022/01/14 04:02:14;;;;;;;79.87;39.17;;;;;;;-0.11;88.40;102409.94;4974934;28;20447;-78
2022/01/14 04:04:40;;;;;;;76.67;40.50;;;;;;;-0.14;88.74;102418.22;4974421;28;20408;-79
2022/01/14 04:07:05;;;;;;;75.13;39.10;;;;;;;-0.04;88.71;102419.13;4974869;28;20407;-78
2022/01/14 04:09:36;;;;;;;70.60;40.43;;;;;;;0.07;88.52;102415.56;4974179;28;20430;-78
2022/01/14 04:12:02;;;;;;;79.20;39.38;;;;;;;0.16;87.58;102414.78;4974579;28;20412;-78
2022/01/14 04:16:53;;;;;;;76.37;41.23;;;;;;;0.26;87.60;102421.88;4974353;28;20431;-79
2022/01/14 04:19:19;;;;;;;76.18;39.35;;;;;;;0.33;86.92;102423.03;4988753;28;20461;-79
2022/01/14 04:21:44;;;;;;;70.88;38.63;;;;;;;0.35;86.61;102415.75;4974520;28;20892;-78
2022/01/14 04:24:10;;;;;;;68.82;38.95;;;;;;;0.38;86.28;102420.81;4976303;28;20407;-78
2022/01/14 04:26:35;;;;;;;65.97;38.92;;;;;;;0.39;86.55;102411.84;4978706;28;20408;-78
2022/01/14 04:29:01;;;;;;;67.32;39.45;;;;;;;0.41;86.49;102422.38;4974420;28;20400;-79
2022/01/14 04:31:26;;;;;;;61.67;38.13;;;;;;;0.46;86.23;102418.34;4973558;28;20899;-78
2022/01/14 04:33:51;;;;;;;70.10;39.03;;;;;;;0.35;86.23;102423.75;4982890;28;20407;-78
2022/01/14 04:36:17;;;;;;;74.00;40.80;;;;;;;0.37;86.84;102427.13;4975654;28;20400;-79
2022/01/14 04:38:42;;;;;;;76.82;39.95;;;;;;;0.36;87.05;102428.09;4971564;28;20435;-79
2022/01/14 04:41:09;;;;;;;79.50;40.65;;;;;;;0.46;86.35;102429.00;4985148;28;20411;-78
2022/01/14 04:43:35;;;;;;;80.23;41.47;;;;;;;0.29;86.40;102434.09;4976239;28;20496;-78
2022/01/14 04:48:30;;;;;;;78.80;40.97;;;;;;;0.23;86.63;102443.44;4976263;28;20424;-79
2022/01/14 04:50:56;;;;;;;86.47;41.67;;;;;;;0.31;87.85;102430.31;4978238;28;20411;-79
2022/01/14 04:53:22;;;;;;;83.60;40.40;;;;;;;0.40;86.76;102432.19;4959021;28;20829;-79
2022/01/14 04:55:49;;;;;;;79.97;40.75;;;;;;;0.48;86.62;102418.22;4973252;28;20772;-79
2022/01/14 04:58:15;;;;;;;74.82;38.83;;;;;;;0.42;86.29;102419.59;4967398;28;20420;-79
2022/01/14 05:00:40;;;;;;;76.90;39.77;;;;;;;0.35;87.03;102413.09;4973302;28;20491;-78
2022/01/14 05:03:06;;;;;;;95.23;40.27;;;;;;;0.46;86.77;102410.31;4973758;28;20401;-79
2022/01/14 05:05:35;;;;;;;97.53;42.33;;;;;;;0.44;86.36;102408.78;4971046;28;20446;-79
2022/01/14 05:08:01;;;;;;;97.87;41.97;;;;;;;0.46;86.11;102405.00;4972831;28;20745;-79
2022/01/14 05:12:52;;;;;;;93.65;42.90;;;;;;;0.35;86.47;102410.44;4980644;28;20450;-79
2022/01/14 05:15:19;;;;;;;90.60;43.10;;;;;;;0.45;86.74;102408.66;4974888;28;20404;-79
2022/01/14 05:17:46;;;;;;;94.43;43.25;;;;;;;0.47;86.78;102413.84;4972657;28;20428;-78
2022/01/14 05:20:12;;;;;;;89.30;42.67;;;;;;;0.53;86.82;102414.16;4952685;28;20499;-79
2022/01/14 05:22:38;;;;;;;94.57;43.00;;;;;;;0.53;87.14;102416.84;4971980;28;20419;-79
2022/01/14 05:25:05;;;;;;;106.70;43.97;;;;;;;0.55;86.87;102406.03;4984315;28;20416;-79
2022/01/14 05:27:31;;;;;;;142.88;46.88;;;;;;;0.54;86.71;102399.00;4973140;28;20411;-79
2022/01/14 05:29:56;;;;;;;132.80;49.20;;;;;;;0.51;87.02;102409.94;4975261;28;20891;-79
2022/01/14 05:32:22;;;;;;;133.43;49.63;;;;;;;0.47;86.86;102409.38;4956336;28;20412;-78
2022/01/14 05:34:48;;;;;;;138.80;49.95;;;;;;;0.53;87.34;102406.16;4988617;28;20398;-78
2022/01/14 05:37:14;;;;;;;142.43;51.35;;;;;;;0.57;87.20;102398.75;4986703;28;20803;-80
2022/01/14 05:39:40;;;;;;;164.47;50.23;;;;;;;0.62;87.13;102406.34;4975044;28;20826;-78
2022/01/14 05:42:06;;;;;;;108.40;48.53;;;;;;;0.63;87.72;102408.88;4974738;28;20413;-79
2022/01/14 05:44:32;;;;;;;111.15;48.90;;;;;;;0.65;87.56;102406.09;4973335;28;20466;-79
2022/01/14 05:47:00;;;;;;;153.13;55.58;;;;;;;0.51;88.31;102400.13;4984662;28;20495;-79
2022/01/14 05:49:25;;;;;;;135.52;52.20;;;;;;;0.50;88.17;102397.56;4956899;28;20415;-78
2022/01/14 05:51:51;;;;;;;182.38;58.75;;;;;;;0.48;89.01;102395.06;4956087;28;20427;-79
2022/01/14 05:54:18;;;;;;;155.43;55.57;;;;;;;0.50;88.54;102398.44;4972510;28;20437;-79
2022/01/14 05:56:43;;;;;;;134.48;51.72;;;;;;;0.64;89.00;102401.72;4983468;28;20428;-79
2022/01/14 05:59:10;;;;;;;115.20;50.40;;;;;;;0.67;88.29;102406.78;4975107;28;20431;-78
2022/01/14 06:01:35;;;;;;;140.90;52.00;;;;;;;0.71;88.51;102398.41;4962971;28;20419;-79
2022/01/14 06:04:02;;;;;;;124.73;53.30;;;;;;;0.71;87.64;102392.22;4978761;28;20410;-79
2022/01/14 06:06:28;;;;;;;125.97;50.40;;;;;;;0.74;88.22;102402.63;4972944;28;20814;-78
2022/01/14 06:08:53;;;;;;;128.13;52.33;;;;;;;0.69;88.54;102388.84;4972543;28;20415;-79
2022/01/14 06:11:19;;;;;;;110.23;50.60;;;;;;;0.76;88.38;102392.66;4974370;28;20416;-79
2022/01/14 06:13:45;;;;;;;128.98;51.08;;;;;;;0.73;88.14;102385.75;4976295;28;20403;-79
2022/01/14 06:16:10;;;;;;;128.95;52.35;;;;;;;0.68;88.55;102382.66;4964128;28;20490;-79
2022/01/14 06:18:36;;;;;;;141.75;51.80;;;;;;;0.70;88.07;102386.03;4975221;28;20505;-79
2022/01/14 06:21:01;;;;;;;134.07;52.07;;;;;;;0.71;88.18;102389.53;4980957;28;20440;-79
2022/01/14 06:23:26;;;;;;;138.37;54.53;;;;;;;0.71;88.27;102385.06;4973331;28;21687;-78
2022/01/14 06:25:52;;;;;;;144.60;54.37;;;;;;;0.68;88.11;102379.13;4974611;28;20486;-79
2022/01/14 06:28:17;;;;;;;122.85;54.10;;;;;;;0.71;87.95;102377.06;4980460;28;20408;-79
2022/01/14 06:30:42;;;;;;;132.03;52.27;;;;;;;0.75;87.99;102385.63;4981434;28;20405;-79
2022/01/14 06:33:08;;;;;;;117.47;50.33;;;;;;;0.71;88.09;102379.72;4955171;28;20514;-79
2022/01/14 06:35:33;;;;;;;125.93;52.17;;;;;;;0.73;88.62;102379.56;4973592;28;20404;-79
2022/01/14 06:38:00;;;;;;;131.80;53.58;;;;;;;0.73;88.18;102383.09;4972392;28;20431;-79
2022/01/14 06:40:26;;;;;;;115.35;51.33;;;;;;;0.70;88.32;102383.34;4972449;28;20409;-79
2022/01/14 06:42:52;;;;;;;121.88;49.67;;;;;;;0.67;87.80;102377.44;4965956;28;20883;-79
2022/01/14 06:45:17;;;;;;;103.43;46.25;;;;;;;0.36;89.46;102369.41;4972248;28;20408;-79
2022/01/14 06:47:43;;;;;;;111.70;47.90;;;;;;;0.35;89.56;102374.91;4958020;28;20392;-79
2022/01/14 06:50:09;;;;;;;100.63;46.57;;;;;;;0.34;89.86;102375.88;4990802;28;20406;-79
2022/01/14 06:52:34;;;;;;;104.45;46.97;;;;;;;0.48;89.66;102379.06;4973892;28;20412;-79
2022/01/14 06:54:59;;;;;;;100.00;45.47;;;;;;;0.28;89.66;102373.75;4967908;28;20416;-79
2022/01/14 06:57:25;;;;;;;105.97;47.97;;;;;;;0.36;89.97;102381.94;4981894;28;20422;-79
2022/01/14 06:59:51;;;;;;;109.87;48.63;;;;;;;0.27;90.07;102390.69;4975881;28;20411;-79
2022/01/14 07:02:16;;;;;;;101.80;47.77;;;;;;;0.46;90.11;102385.50;4975238;28;20404;-79
2022/01/14 07:04:42;;;;;;;110.93;48.10;;;;;;;0.48;89.61;102387.06;4976538;28;20430;-79
2022/01/14 07:07:07;;;;;;;104.32;48.50;;;;;;;0.56;89.14;102393.56;4976601;28;20404;-79
2022/01/14 07:09:34;;;;;;;102.27;48.17;;;;;;;0.52;89.00;102385.81;4958302;28;20749;-79
2022/01/14 07:12:01;;;;;;;132.73;51.10;;;;;;;0.48;89.59;102381.72;4983695;28;20926;-79
2022/01/14 07:14:29;;;;;;;127.07;52.28;;;;;;;0.64;88.67;102391.03;4986015;28;20406;-78
2022/01/14 07:16:55;;;;;;;125.22;53.38;;;;;;;0.49;88.36;102378.06;4959600;28;20404;-79
2022/01/14 07:19:21;;;;;;;113.20;51.03;;;;;;;0.64;88.83;102391.03;4980815;28;20416;-79
2022/01/14 07:21:47;;;;;;;114.88;48.92;;;;;;;0.47;88.70;102387.16;4957732;28;20791;-79
2022/01/14 07:24:13;;;;;;;107.35;48.95;;;;;;;0.35;88.98;102398.91;4980945;28;20928;-79
2022/01/14 07:26:40;;;;;;;99.53;46.47;;;;;;;0.43;89.94;102401.75;4974180;28;20503;-79
2022/01/14 07:29:06;;;;;;;97.30;45.42;;;;;;;0.35;89.79;102407.75;4989367;28;20408;-79
2022/01/14 07:31:32;;;;;;;102.63;45.67;;;;;;;0.50;89.69;102410.91;4976137;28;20428;-79
2022/01/14 07:33:57;;;;;;;93.80;46.43;;;;;;;0.49;89.43;102418.06;4959882;28;20412;-79
2022/01/14 07:36:23;;;;;;;104.43;44.87;;;;;;;0.46;89.66;102417.50;4975360;28;20408;-79
2022/01/14 07:38:48;;;;;;;91.72;43.83;;;;;;;0.50;89.70;102417.09;4971156;28;20424;-78
2022/01/14 07:41:14;;;;;;;94.82;44.72;;;;;;;0.39;89.83;102411.00;4973741;28;20396;-79
2022/01/14 07:43:39;;;;;;;88.03;43.40;;;;;;;0.46;89.41;102410.31;4967763;28;20452;-79
2022/01/14 07:46:05;;;;;;;88.30;44.20;;;;;;;0.52;89.55;102414.31;4986071;28;21128;-79
2022/01/14 07:48:31;;;;;;;116.73;46.70;;;;;;;0.70;88.64;102423.38;4984750;28;20431;-79
2022/01/14 07:50:56;;;;;;;108.40;47.17;;;;;;;0.79;87.48;102417.22;4971669;28;20420;-78
2022/01/14 07:53:22;;;;;;;105.27;47.73;;;;;;;0.78;87.47;102418.22;4974642;28;20477;-78
2022/01/14 07:55:47;;;;;;;96.60;48.80;;;;;;;0.74;88.11;102416.81;4958096;28;20888;-79
2022/01/14 07:58:14;;;;;;;102.57;47.13;;;;;;;0.82;87.86;102414.31;4974889;28;20431;-79
2022/01/14 08:00:40;;;;;;;121.10;49.92;;;;;;;0.88;87.21;102416.44;4968937;28;20535;-80
2022/01/14 08:03:07;;;;;;;112.45;50.78;;;;;;;0.90;87.03;102422.50;4970641;28;20926;-80
2022/01/14 08:05:32;;;;;;;130.30;51.57;;;;;;;0.97;87.04;102420.13;4957556;28;20419;-80
2022/01/14 08:08:03;;;;;;;116.32;49.00;;;;;;;0.99;86.62;102424.34;4973426;28;20408;-79
2022/01/14 08:10:28;;;;;;;107.85;46.80;;;;;;;0.67;87.63;102428.13;4972977;28;20872;-79
2022/01/14 08:12:54;;;;;;;106.25;47.78;;;;;;;0.71;88.45;102429.56;4974494;28;20408;-79
2022/01/14 08:15:19;;;;;;;106.53;47.37;;;;;;;0.74;88.16;102422.13;4965194;28;20407;-80
2022/01/14 08:17:44;;;;;;;115.33;49.30;;;;;;;0.88;88.34;102426.28;4970832;28;20432;-79
2022/01/14 08:20:10;;;;;;;117.63;49.30;;;;;;;0.97;87.57;102441.47;4986963;28;20499;-79
2022/01/14 08:22:35;;;;;;;137.70;51.95;;;;;;;0.94;86.41;102439.09;4975285;28;20416;-78
2022/01/14 08:25:02;;;;;;;129.80;49.42;;;;;;;0.91;86.32;102434.88;4967936;28;20418;-78
2022/01/14 08:27:32;;;;;;;174.27;51.57;;;;;;;0.88;86.38;102429.81;4979907;28;20406;-79
2022/01/14 08:29:59;;;;;;;152.18;54.97;;;;;;;0.90;86.71;102427.81;4975121;28;20455;-80
2022/01/14 08:32:24;;;;;;;150.38;53.45;;;;;;;0.82;86.92;102426.81;4974471;28;20415;-78
2022/01/14 08:34:50;;;;;;;155.13;52.93;;;;;;;0.81;86.67;102423.31;4974489;28;20408;-80
2022/01/14 08:37:16;;;;;;;181.20;52.90;;;;;;;0.77;86.78;102429.03;4972845;28;20415;-78
2022/01/14 08:39:41;;;;;;;128.23;50.30;;;;;;;0.83;87.43;102433.81;4969664;28;20467;-80
2022/01/14 08:42:09;;;;;;;199.57;52.33;;;;;;;0.91;86.72;102434.03;4980990;28;20761;-79
2022/01/14 08:44:36;;;;;;;179.73;51.72;;;;;;;0.89;86.36;102425.31;4970407;28;20416;-80
2022/01/14 08:47:04;;;;;;;177.63;52.60;;;;;;;0.92;86.45;102425.84;4973478;28;20487;-80
2022/01/14 08:49:30;;;;;;;200.57;47.42;;;;;;;0.80;86.33;102426.09;4976648;28;20413;-79
2022/01/14 08:51:55;;;;;;;217.82;54.33;;;;;;;0.80;86.56;102428.75;4975230;28;20482;-80
2022/01/14 08:54:21;;;;;;;204.40;53.03;;;;;;;0.77;86.64;102426.34;4969745;28;20503;-78
2022/01/14 08:56:46;;;;;;;201.57;55.77;;;;;;;0.82;86.52;102418.81;4971241;28;20416;-79
2022/01/14 08:59:14;;;;;;;111.63;52.87;;;;;;;0.83;86.62;102424.00;4973735;28;20419;-79
2022/01/14 09:01:41;;;;;;;124.22;48.30;;;;;;;0.69;87.57;102420.88;4970036;28;20426;-79
2022/01/14 09:04:06;;;;;;;113.30;46.47;;;;;;;0.83;88.26;102415.16;4970555;28;20404;-79
2022/01/14 09:06:31;;;;;;;140.23;46.70;;;;;;;1.03;87.81;102412.41;4972864;28;20435;-79
2022/01/14 09:08:57;;;;;;;198.57;46.77;;;;;;;1.08;86.20;102413.84;4971264;28;20495;-79
2022/01/14 09:11:22;;;;;;;185.37;47.50;;;;;;;1.06;86.08;102411.31;4971870;28;20422;-78
2022/01/14 09:13:47;;;;;;;160.63;46.87;;;;;;;1.06;85.45;102411.31;4963822;28;20486;-78
2022/01/14 09:16:13;;;;;;;193.40;47.95;;;;;;;1.06;85.43;102416.63;4969113;28;20413;-79
2022/01/14 09:18:39;;;;;;;161.27;46.13;;;;;;;1.11;85.33;102413.56;4982350;28;20428;-79
2022/01/14 09:21:04;;;;;;;152.00;49.17;;;;;;;1.13;85.20;102424.94;4978653;28;20458;-79
2022/01/14 09:23:30;;;;;;;136.27;48.40;;;;;;;1.21;85.17;102415.31;4972707;28;20400;-79
2022/01/14 09:25:56;;;;;;;169.70;53.57;;;;;;;1.35;85.19;102422.91;4973277;28;20403;-79
2022/01/14 09:28:22;;;;;;;140.98;49.10;;;;;;;1.30;84.82;102418.97;4973303;28;20543;-78
2022/01/14 09:30:47;;;;;;;122.57;45.23;;;;;;;1.36;84.92;102429.09;4973144;28;20863;-79
2022/01/14 09:33:16;;;;;;;103.10;44.03;;;;;;;1.41;85.22;102424.19;4972865;28;20416;-79
2022/01/14 09:35:41;;;;;;;102.00;44.17;;;;;;;1.50;85.51;102421.53;4967405;28;20412;-80
2022/01/14 09:38:07;;;;;;;133.63;45.43;;;;;;;1.57;84.07;102419.16;4953004;28;20513;-79
2022/01/14 09:40:32;;;;;;;155.13;51.10;;;;;;;1.56;83.87;102418.31;4965719;28;20495;-79
2022/01/14 09:43:00;;;;;;;116.53;49.23;;;;;;;1.63;84.18;102420.44;4972472;28;20447;-80
2022/01/14 09:45:28;;;;;;;131.32;46.83;;;;;;;1.61;84.05;102419.72;4980386;28;20947;-80
2022/01/14 09:47:55;;;;;;;92.82;45.65;;;;;;;1.66;84.06;102414.81;4969547;28;20896;-79
2022/01/14 09:50:21;;;;;;;108.90;48.72;;;;;;;1.46;84.64;102427.28;4972252;28;20571;-79
2022/01/14 09:52:49;;;;;;;101.43;49.40;;;;;;;1.52;85.19;102424.91;4969155;28;20550;-79
2022/01/14 09:55:15;;;;;;;88.00;45.92;;;;;;;1.60;85.22;102423.38;4974973;28;20430;-79
2022/01/14 09:57:41;;;;;;;101.03;48.00;;;;;;;1.72;84.83;102425.78;4971415;28;20426;-79
2022/01/14 10:00:07;;;;;;;93.27;47.20;;;;;;;1.85;84.09;102431.69;4964901;28;20418;-79
2022/01/14 10:02:38;;;;;;;100.25;45.88;;;;;;;1.58;84.35;102432.38;4972960;28;20469;-79
2022/01/14 10:05:07;;;;;;;93.13;45.13;;;;;;;1.28;86.15;102435.16;4971985;28;20408;-80
2022/01/14 10:07:33;;;;;;;89.20;47.83;;;;;;;1.53;86.23;102431.94;4973000;28;20431;-79
2022/01/14 10:10:01;;;;;;;100.20;46.67;;;;;;;1.72;84.75;102432.94;4970114;28;20412;-79
2022/01/14 10:12:31;;;;;;;82.05;47.45;;;;;;;1.69;84.75;102430.56;4969014;28;20408;-78
2022/01/14 10:15:00;;;;;;;84.55;47.47;;;;;;;1.72;84.98;102432.94;4969956;28;20412;-80
2022/01/14 10:17:34;;;;;;;94.18;47.42;;;;;;;1.78;84.26;102440.44;4970862;28;21187;-79
2022/01/14 10:19:59;;;;;;;86.13;45.42;;;;;;;1.64;85.16;102441.69;4970872;28;20412;-79
2022/01/14 10:22:30;;;;;;;94.40;46.57;;;;;;;1.48;85.18;102431.50;4961847;28;21046;-79
2022/01/14 10:25:22;;;;;;;85.05;44.03;;;;;;;1.21;86.10;102439.34;4972596;28;20435;-79
2022/01/14 10:27:50;;;;;;;134.40;47.70;;;;;;;1.18;87.06;102438.75;4966115;28;20759;-79
2022/01/14 10:30:25;;;;;;;88.35;45.50;;;;;;;1.28;86.19;102440.47;4953829;28;20856;-79
2022/01/14 10:32:55;;;;;;;85.00;43.90;;;;;;;1.27;86.63;102444.13;4976243;28;20400;-78
2022/01/14 10:35:23;;;;;;;89.03;43.75;;;;;;;1.66;86.22;102430.84;4974867;28;20766;-78
2022/01/14 10:37:49;;;;;;;82.72;45.50;;;;;;;1.85;83.49;102423.66;4969173;28;20486;-79
2022/01/14 10:40:21;;;;;;;81.65;43.22;;;;;;;1.69;84.56;102423.38;4972371;28;20408;-79
2022/01/14 10:42:50;;;;;;;81.13;44.53;;;;;;;1.96;84.40;102415.53;4981315;28;20428;-79
2022/01/14 10:45:20;;;;;;;87.10;47.08;;;;;;;2.18;83.09;102408.16;4976352;28;20399;-79
2022/01/14 10:47:50;;;;;;;89.00;49.28;;;;;;;2.20;82.32;102401.72;4972126;28;20403;-79
2022/01/14 10:50:15;;;;;;;95.35;48.83;;;;;;;2.31;82.34;102396.19;4958800;28;20479;-79
2022/01/14 10:52:48;;;;;;;83.37;45.87;;;;;;;2.40;81.39;102399.84;4965074;28;20504;-79
2022/01/14 10:55:26;;;;;;;79.90;45.57;;;;;;;2.19;81.98;102385.78;4973043;28;20434;-79
2022/01/14 10:57:51;;;;;;;84.97;47.72;;;;;;;2.12;82.86;102390.03;4945408;28;20971;-78
2022/01/14 11:00:19;;;;;;;81.83;46.43;;;;;;;2.00;83.34;102376.81;4976154;28;20411;-79
2022/01/14 11:02:45;;;;;;;85.63;46.83;;;;;;;1.65;84.64;102373.88;4979655;28;20737;-79
2022/01/14 11:05:18;;;;;;;85.05;46.47;;;;;;;1.72;84.93;102377.66;4975873;28;20392;-78
2022/01/14 11:07:46;;;;;;;80.95;46.10;;;;;;;1.75;85.25;102369.38;4971528;28;20392;-78
2022/01/14 11:10:24;;;;;;;82.55;45.58;;;;;;;1.95;85.45;102368.38;4972394;28;20403;-79
2022/01/14 11:12:52;;;;;;;78.03;45.50;;;;;;;2.34;83.73;102369.13;4968581;28;20487;-79
2022/01/14 11:15:19;;;;;;;74.43;45.23;;;;;;;2.58;81.52;102364.13;4974578;28;20419;-78
2022/01/14 11:17:50;;;;;;;85.05;45.75;;;;;;;2.50;81.97;102358.66;4972252;28;20480;-78
2022/01/14 11:20:23;;;;;;;84.05;45.00;;;;;;;2.65;82.01;102351.00;4974177;28;20416;-78
2022/01/14 11:25:39;;;;;;;101.97;53.53;;;;;;;2.64;81.18;102349.31;4973229;28;20811;-79
2022/01/14 11:28:06;;;;;;;82.50;48.88;;;;;;;2.18;82.40;102342.16;4975984;28;20497;-78
2022/01/14 11:30:39;;;;;;;96.85;50.97;;;;;;;2.18;83.84;102338.63;4977511;28;20760;-79
2022/01/14 11:33:06;;;;;;;74.73;46.57;;;;;;;2.23;83.24;102337.22;4972590;28;20483;-78
2022/01/14 11:35:34;;;;;;;69.47;43.47;;;;;;;1.96;84.02;102337.97;4973057;28;20775;-80
2022/01/14 11:38:01;;;;;;;67.18;43.75;;;;;;;2.50;83.09;102328.41;4969854;28;21294;-81